Terminal Aerodrome Forecast
Issued by NWS

Home | Current Version | Previous Version | Text Only | Print | Product List | Glossary Off
Versions: 1 2 3 4 5 6 7 8 9 10 11 12 13 14 15 16 17 18 19 20 21 22 23 24 25 26 27 28

000
FTUS43 KGRB 212300 RRA
TAFAUW
TAF
KAUW 212341Z 2200/2224 11008KT 6SM HZ BKN008 OVC020
     FM220200 12005KT 5SM BR BKN015 BKN060
     FM220500 VRB03KT 2SM BR BKN004 BKN012
      TEMPO 2208/2212 3/4SM BR BKN002
     FM221400 VRB03KT 4SM BR BKN008 BKN035
     FM221600 VRB03KT 6SM HZ BKN020 BKN035
     FM222200 VRB03KT 6SM HZ SCT030=

USA.gov is the U.S. government's official web portal to all federal, state and local government web resources and services.